Time;durP1;ratioP1;P1;durP2;ratioP2;P2;SDS_P1;SDS_P2;PMS_P1;PMS_P2;Temp;Humidity;BMP_temperature;BMP_pressure;BME280_temperature;BME280_humidity;BME280_pressure;Samples;Min_cycle;Max_cycle;Signal;HPM_P1;HPM_P2
2023/06/23 00:00:14;;;;;;;18.83;16.27;;;17.20;99.90;;;;;;7381170;19;20014;-65
2023/06/23 00:02:40;;;;;;;25.05;16.35;;;17.20;99.90;;;;;;7385432;19;20023;-64
2023/06/23 00:05:08;;;;;;;21.90;18.15;;;17.20;99.90;;;;;;7378784;19;20363;-65
2023/06/23 00:07:35;;;;;;;20.90;17.77;;;17.20;99.90;;;;;;7381935;19;20018;-64
2023/06/23 00:10:06;;;;;;;21.17;18.98;;;17.20;99.90;;;;;;7380469;19;20103;-64
2023/06/23 00:12:36;;;;;;;22.83;20.40;;;17.20;99.90;;;;;;7382972;19;20030;-64
2023/06/23 00:15:03;;;;;;;23.42;18.90;;;17.10;99.90;;;;;;7379947;19;20013;-64
2023/06/23 00:17:30;;;;;;;26.05;18.63;;;17.20;99.90;;;;;;7379397;19;20789;-65
2023/06/23 00:19:58;;;;;;;20.88;18.02;;;17.20;99.90;;;;;;7376237;19;20010;-64
2023/06/23 00:22:27;;;;;;;20.35;18.20;;;17.10;99.90;;;;;;7380825;19;20025;-66
2023/06/23 00:24:54;;;;;;;24.30;20.42;;;17.10;99.90;;;;;;7383120;19;20026;-65
2023/06/23 00:27:20;;;;;;;21.75;19.55;;;17.20;99.90;;;;;;7371063;19;20015;-65
2023/06/23 00:29:47;;;;;;;24.58;18.95;;;17.10;99.90;;;;;;7381273;19;20033;-64
2023/06/23 00:32:17;;;;;;;22.35;20.00;;;17.10;99.90;;;;;;7382496;19;20068;-64
2023/06/23 00:34:43;;;;;;;22.77;19.45;;;17.20;99.90;;;;;;7382758;19;20500;-64
2023/06/23 00:37:09;;;;;;;22.02;19.70;;;17.20;99.90;;;;;;7379800;19;20018;-64
2023/06/23 00:39:36;;;;;;;22.95;20.05;;;17.20;99.90;;;;;;7381732;19;20024;-65
2023/06/23 00:42:04;;;;;;;23.55;21.00;;;17.20;99.90;;;;;;7378508;19;20032;-65
2023/06/23 00:44:31;;;;;;;25.65;20.17;;;17.20;99.90;;;;;;7381178;19;20552;-64
2023/06/23 00:46:57;;;;;;;23.70;21.17;;;17.10;99.90;;;;;;7380973;19;20017;-64
2023/06/23 00:49:24;;;;;;;19.73;17.77;;;17.20;99.90;;;;;;7376439;19;20022;-64
2023/06/23 00:51:50;;;;;;;23.13;19.30;;;17.10;99.90;;;;;;7371659;19;20101;-64
2023/06/23 00:54:16;;;;;;;22.65;19.75;;;17.10;99.90;;;;;;7373084;19;20073;-65
2023/06/23 00:56:46;;;;;;;22.02;19.60;;;17.10;99.90;;;;;;7375207;19;20010;-65
2023/06/23 00:59:12;;;;;;;27.13;19.23;;;17.10;99.90;;;;;;7381427;19;20351;-66
2023/06/23 01:01:39;;;;;;;24.73;19.85;;;17.10;99.90;;;;;;7381836;19;20345;-66
2023/06/23 01:04:05;;;;;;;25.02;20.90;;;17.10;99.90;;;;;;7382457;19;20019;-66
2023/06/23 01:06:43;;;;;;;24.88;21.77;;;17.00;99.90;;;;;;7378254;19;20026;-65
2023/06/23 01:09:16;;;;;;;25.90;21.02;;;17.00;99.90;;;;;;7373792;19;20049;-65
2023/06/23 01:11:59;;;;;;;26.08;22.67;;;17.00;99.90;;;;;;7367906;19;20022;-65
2023/06/23 01:14:35;;;;;;;26.55;20.92;;;17.00;99.90;;;;;;7379584;19;20030;-66
2023/06/23 01:17:09;;;;;;;25.38;22.25;;;17.00;99.90;;;;;;7380709;19;20371;-66
2023/06/23 01:20:20;;;;;;;23.10;20.38;;;17.00;99.90;;;;;;7376168;19;20022;-65
2023/06/23 01:23:14;;;;;;;24.27;21.73;;;16.90;99.90;;;;;;7368286;19;20019;-65
2023/06/23 01:25:54;;;;;;;26.35;21.33;;;16.90;99.90;;;;;;7373830;19;20051;-66
2023/06/23 01:28:51;;;;;;;23.40;20.90;;;16.90;99.90;;;;;;7378581;19;20022;-65
2023/06/23 01:31:31;;;;;;;23.70;20.58;;;16.90;99.90;;;;;;7377461;19;20018;-64
2023/06/23 01:34:02;;;;;;;24.27;21.65;;;16.90;99.90;;;;;;7381125;19;20358;-65
2023/06/23 01:36:37;;;;;;;23.23;20.75;;;16.90;99.90;;;;;;7377947;19;20018;-65
2023/06/23 01:39:08;;;;;;;24.60;21.55;;;16.90;99.90;;;;;;7378750;19;20098;-65
2023/06/23 01:41:42;;;;;;;30.85;20.77;;;16.90;99.90;;;;;;7380109;19;20021;-65
2023/06/23 01:44:15;;;;;;;25.80;21.17;;;16.90;99.90;;;;;;7379637;19;20874;-64
2023/06/23 01:46:50;;;;;;;26.13;21.92;;;16.90;99.90;;;;;;7377802;19;20018;-65
2023/06/23 01:49:28;;;;;;;27.67;20.45;;;16.90;99.90;;;;;;7380681;19;20817;-65
2023/06/23 01:51:57;;;;;;;24.30;21.10;;;16.90;99.90;;;;;;7379639;19;20022;-65
2023/06/23 01:54:26;;;;;;;24.08;20.85;;;16.90;99.90;;;;;;7376298;19;20878;-65
2023/06/23 01:56:54;;;;;;;23.27;20.80;;;16.90;99.90;;;;;;7379248;19;20039;-65
2023/06/23 01:59:22;;;;;;;22.08;19.77;;;16.90;99.90;;;;;;7378441;19;20047;-64
2023/06/23 02:01:50;;;;;;;23.85;20.95;;;16.80;99.90;;;;;;7375978;19;20509;-65
2023/06/23 02:04:18;;;;;;;22.48;19.83;;;16.80;99.90;;;;;;7375023;19;20020;-65
2023/06/23 02:06:47;;;;;;;22.58;20.30;;;16.80;99.90;;;;;;7381453;19;20046;-65
2023/06/23 02:09:21;;;;;;;23.77;19.25;;;16.80;99.90;;;;;;7377439;19;20014;-65
2023/06/23 02:11:49;;;;;;;21.55;18.63;;;16.80;99.90;;;;;;7380320;19;20022;-65
2023/06/23 02:14:17;;;;;;;21.13;19.00;;;16.80;99.90;;;;;;7376032;19;20113;-65
2023/06/23 02:16:44;;;;;;;22.30;19.70;;;16.70;99.90;;;;;;7376704;19;20111;-65
2023/06/23 02:19:12;;;;;;;21.70;18.75;;;16.80;99.90;;;;;;7376112;19;21007;-65
2023/06/23 02:21:39;;;;;;;21.73;18.50;;;16.80;99.90;;;;;;7374569;19;20428;-66
2023/06/23 02:24:07;;;;;;;20.88;17.30;;;16.70;99.90;;;;;;7378207;19;20097;-66
2023/06/23 02:26:35;;;;;;;19.70;17.30;;;16.80;99.90;;;;;;7378782;19;20019;-66
2023/06/23 02:29:04;;;;;;;20.67;17.35;;;16.70;99.90;;;;;;7376812;19;20022;-65
2023/06/23 02:31:30;;;;;;;18.52;16.50;;;16.70;99.90;;;;;;7378909;19;20078;-64
2023/06/23 02:33:57;;;;;;;19.02;17.00;;;16.70;99.90;;;;;;7374637;19;20022;-65
2023/06/23 02:36:29;;;;;;;19.38;16.30;;;16.70;99.90;;;;;;7376901;19;20484;-66
2023/06/23 02:38:59;;;;;;;17.70;15.68;;;16.60;99.90;;;;;;7373527;19;20025;-65
2023/06/23 02:41:30;;;;;;;21.50;17.65;;;16.60;99.90;;;;;;7365751;19;20492;-64
2023/06/23 02:44:01;;;;;;;18.17;15.95;;;16.60;99.90;;;;;;7375079;19;20520;-64
2023/06/23 02:46:35;;;;;;;20.33;18.02;;;16.60;99.90;;;;;;7377427;19;20464;-64
2023/06/23 02:49:07;;;;;;;22.63;17.80;;;16.60;99.90;;;;;;7379681;19;20026;-64
2023/06/23 02:51:36;;;;;;;22.20;17.95;;;16.60;99.90;;;;;;7380278;19;20029;-64
2023/06/23 02:54:12;;;;;;;22.55;18.55;;;16.50;99.90;;;;;;7379216;19;20025;-64
2023/06/23 02:56:43;;;;;;;21.10;18.80;;;16.50;99.90;;;;;;7376445;19;20022;-64
2023/06/23 02:59:16;;;;;;;22.55;19.38;;;16.50;99.90;;;;;;7378009;19;20018;-64
2023/06/23 03:01:52;;;;;;;25.08;20.55;;;16.50;99.90;;;;;;7376817;19;20018;-64
2023/06/23 03:04:19;;;;;;;23.45;19.30;;;16.50;99.90;;;;;;7380128;19;20074;-63
2023/06/23 03:06:45;;;;;;;24.80;20.77;;;16.50;99.90;;;;;;7377252;19;20018;-65
2023/06/23 03:09:12;;;;;;;26.23;23.38;;;16.50;99.90;;;;;;7376337;19;20029;-65
2023/06/23 03:11:39;;;;;;;25.65;21.58;;;16.50;99.90;;;;;;7377426;19;20706;-65
2023/06/23 03:14:07;;;;;;;27.23;23.88;;;16.50;99.90;;;;;;7376616;19;20014;-64
2023/06/23 03:16:43;;;;;;;25.52;22.83;;;16.50;99.90;;;;;;7371888;19;20056;-65
2023/06/23 03:19:09;;;;;;;26.23;23.40;;;16.50;99.90;;;;;;7368229;19;20026;-65
2023/06/23 03:21:38;;;;;;;26.42;23.73;;;16.50;99.90;;;;;;7374233;19;20022;-63
2023/06/23 03:24:08;;;;;;;31.60;24.65;;;16.50;99.90;;;;;;7376826;19;20045;-64
2023/06/23 03:26:38;;;;;;;28.08;25.08;;;16.50;99.90;;;;;;7374546;19;20022;-63
2023/06/23 03:29:07;;;;;;;;;;;16.50;99.90;;;;;;7383753;19;20015;-64
2023/06/23 03:31:39;;;;;;;27.10;24.30;;;16.50;99.90;;;;;;7383249;19;19926;-64
2023/06/23 03:34:06;;;;;;;27.20;24.42;;;16.50;99.90;;;;;;7384898;19;20012;-63
2023/06/23 03:36:38;;;;;;;29.02;25.48;;;16.50;99.90;;;;;;7385508;19;20114;-63
2023/06/23 03:39:17;;;;;;;;;;;16.50;99.90;;;;;;7380154;19;20070;-63
2023/06/23 03:41:44;;;;;;;29.75;24.42;;;16.50;99.90;;;;;;7382603;19;20468;-65
2023/06/23 03:44:23;;;;;;;28.95;25.52;;;16.40;99.90;;;;;;7372458;19;20018;-64
2023/06/23 03:47:24;;;;;;;27.80;23.15;;;16.40;99.90;;;;;;7377567;19;20623;-63
2023/06/23 03:49:58;;;;;;;28.48;24.27;;;16.40;99.90;;;;;;7378946;19;20018;-63
2023/06/23 03:52:27;;;;;;;26.40;23.48;;;16.40;99.90;;;;;;7385104;19;20572;-63
2023/06/23 03:54:56;;;;;;;25.40;22.73;;;16.40;99.90;;;;;;7382999;19;20094;-63
2023/06/23 03:57:27;;;;;;;26.55;22.38;;;16.40;99.90;;;;;;7383715;19;20014;-64
2023/06/23 03:59:55;;;;;;;26.17;21.88;;;16.40;99.90;;;;;;7381262;19;20026;-64
2023/06/23 04:02:24;;;;;;;23.98;20.58;;;16.40;99.90;;;;;;7380927;19;21121;-65
2023/06/23 04:04:55;;;;;;;27.73;22.40;;;16.40;99.90;;;;;;7384556;19;20018;-65
2023/06/23 04:07:24;;;;;;;24.38;21.75;;;16.40;99.90;;;;;;7382357;19;20021;-65
2023/06/23 04:09:53;;;;;;;24.50;21.88;;;16.30;99.90;;;;;;7380471;19;20090;-65
2023/06/23 04:12:21;;;;;;;24.75;21.00;;;16.30;99.90;;;;;;7382263;19;20033;-64
2023/06/23 04:14:51;;;;;;;25.17;21.27;;;16.30;99.90;;;;;;7378407;19;20014;-64
2023/06/23 04:17:21;;;;;;;23.13;20.65;;;16.30;99.90;;;;;;7380481;19;20046;-64
2023/06/23 04:19:50;;;;;;;21.05;18.85;;;16.30;99.90;;;;;;7384319;19;20404;-64
2023/06/23 04:22:22;;;;;;;25.77;21.17;;;16.20;99.90;;;;;;7381386;19;20056;-64
2023/06/23 04:24:49;;;;;;;26.77;20.60;;;16.30;99.90;;;;;;7379888;19;20019;-65
2023/06/23 04:27:18;;;;;;;25.45;20.75;;;16.30;99.90;;;;;;7382175;19;20081;-65
2023/06/23 04:29:47;;;;;;;24.30;20.65;;;16.30;99.90;;;;;;7381452;19;20010;-65
2023/06/23 04:32:16;;;;;;;;;;;16.30;99.90;;;;;;7381580;19;20773;-65
2023/06/23 04:34:43;;;;;;;23.17;19.23;;;16.30;99.90;;;;;;7377385;19;19923;-64
2023/06/23 04:37:57;;;;;;;23.25;19.88;;;16.30;99.90;;;;;;7373071;19;20018;-65
2023/06/23 04:40:46;;;;;;;22.50;18.77;;;16.40;99.90;;;;;;7377292;19;20018;-64
2023/06/23 04:43:15;;;;;;;21.65;18.70;;;16.40;99.90;;;;;;7383024;19;20018;-64
2023/06/23 04:46:02;;;;;;;19.92;17.83;;;16.50;99.90;;;;;;7380348;19;20022;-66
2023/06/23 04:48:34;;;;;;;22.15;18.73;;;16.50;99.90;;;;;;7381654;19;20018;-66
2023/06/23 04:51:04;;;;;;;20.20;17.73;;;16.50;99.90;;;;;;7381145;19;20040;-65
2023/06/23 04:53:37;;;;;;;24.33;18.45;;;16.50;99.90;;;;;;7381607;19;20026;-65
2023/06/23 04:56:07;;;;;;;20.17;17.08;;;16.50;99.90;;;;;;7382505;19;20019;-65
2023/06/23 04:58:37;;;;;;;19.27;17.27;;;16.50;99.90;;;;;;7381666;19;20811;-65
2023/06/23 05:01:08;;;;;;;18.10;16.25;;;16.60;99.90;;;;;;7381135;19;20791;-64
2023/06/23 05:03:36;;;;;;;19.45;16.85;;;16.60;99.90;;;;;;7381132;19;20022;-64
2023/06/23 05:06:04;;;;;;;19.98;15.93;;;16.60;99.90;;;;;;7383432;19;20038;-65
2023/06/23 05:08:32;;;;;;;22.35;17.35;;;16.60;99.90;;;;;;7381901;19;20058;-65
2023/06/23 05:11:05;;;;;;;19.38;15.65;;;16.60;99.90;;;;;;7379823;19;20023;-65
2023/06/23 05:13:36;;;;;;;17.33;15.45;;;16.60;99.90;;;;;;7378779;19;20022;-65
2023/06/23 05:16:04;;;;;;;17.73;15.70;;;16.70;99.90;;;;;;7373347;19;20029;-65
2023/06/23 05:18:33;;;;;;;19.35;16.05;;;16.60;99.90;;;;;;7366769;19;20635;-65
2023/06/23 05:21:01;;;;;;;21.90;18.35;;;16.70;99.90;;;;;;7376956;19;20664;-64
2023/06/23 05:23:28;;;;;;;19.30;15.90;;;16.70;99.90;;;;;;7373678;19;20033;-62
2023/06/23 05:25:57;;;;;;;17.70;15.80;;;16.70;99.90;;;;;;7370120;19;20985;-64
2023/06/23 05:28:26;;;;;;;20.77;17.60;;;16.70;99.90;;;;;;7374987;19;20599;-65
2023/06/23 05:30:58;;;;;;;20.38;15.85;;;16.80;99.90;;;;;;7377008;19;20464;-64
2023/06/23 05:33:25;;;;;;;20.67;16.70;;;16.80;99.90;;;;;;7379979;19;20509;-65
2023/06/23 05:35:53;;;;;;;17.30;15.30;;;16.90;99.90;;;;;;7378024;19;20516;-64
2023/06/23 05:38:21;;;;;;;18.60;15.10;;;16.90;99.90;;;;;;7381279;19;20887;-65
2023/06/23 05:40:47;;;;;;;19.00;15.15;;;16.90;99.90;;;;;;7375767;19;20077;-65
2023/06/23 05:43:17;;;;;;;17.13;15.02;;;17.00;99.90;;;;;;7377085;19;20066;-65
2023/06/23 05:45:43;;;;;;;18.90;15.23;;;17.00;99.90;;;;;;7377634;19;20014;-65
2023/06/23 05:48:17;;;;;;;17.73;15.88;;;17.00;99.90;;;;;;7377157;19;20078;-62
2023/06/23 05:50:48;;;;;;;17.80;15.73;;;16.90;99.90;;;;;;7374726;19;20021;-65
2023/06/23 05:53:19;;;;;;;17.35;15.43;;;16.90;99.90;;;;;;7375822;19;20046;-65
2023/06/23 05:56:14;;;;;;;19.42;15.60;;;16.90;99.90;;;;;;7375730;19;20041;-64
2023/06/23 05:58:45;;;;;;;18.45;15.73;;;16.90;99.90;;;;;;7380176;19;20018;-65
2023/06/23 06:01:16;;;;;;;20.08;17.30;;;17.00;99.90;;;;;;7371417;19;20026;-65
2023/06/23 06:03:46;;;;;;;16.75;15.02;;;17.30;99.90;;;;;;7379466;19;20049;-64
2023/06/23 06:06:14;;;;;;;15.25;13.60;;;17.70;99.90;;;;;;7376858;19;20022;-65
2023/06/23 06:08:41;;;;;;;16.52;13.38;;;18.10;99.90;;;;;;7380819;19;20037;-66
2023/06/23 06:11:10;;;;;;;15.52;14.02;;;18.50;99.90;;;;;;7377424;19;20779;-65
2023/06/23 06:13:43;;;;;;;14.57;13.15;;;18.60;99.90;;;;;;7375146;19;20052;-65
2023/06/23 06:16:10;;;;;;;16.60;13.45;;;18.50;99.90;;;;;;7379742;19;20078;-63
2023/06/23 06:18:38;;;;;;;16.45;14.43;;;18.40;99.90;;;;;;7372522;19;20618;-65
2023/06/23 06:21:07;;;;;;;14.32;12.93;;;18.40;99.90;;;;;;7373997;19;20025;-65
2023/06/23 06:23:34;;;;;;;15.75;12.82;;;18.50;99.90;;;;;;7376226;19;20011;-65
2023/06/23 06:26:02;;;;;;;14.02;12.60;;;18.70;99.90;;;;;;7376357;19;20019;-65
2023/06/23 06:28:29;;;;;;;15.10;12.68;;;18.90;99.90;;;;;;7375577;19;20082;-65
2023/06/23 06:30:58;;;;;;;12.43;11.23;;;19.30;99.90;;;;;;7376683;19;20579;-65
2023/06/23 06:33:26;;;;;;;13.57;10.43;;;19.60;99.90;;;;;;7375757;19;20058;-65
2023/06/23 06:35:57;;;;;;;10.77;9.43;;;19.90;99.90;;;;;;7375540;19;20022;-65
2023/06/23 06:38:24;;;;;;;11.07;9.98;;;20.20;99.90;;;;;;7376481;19;20385;-65
2023/06/23 06:40:53;;;;;;;12.05;10.18;;;20.40;99.90;;;;;;7373148;19;20473;-66
2023/06/23 06:43:19;;;;;;;13.98;12.55;;;20.80;99.90;;;;;;7373523;19;20018;-66
2023/06/23 06:45:50;;;;;;;36.33;32.90;;;21.10;99.90;;;;;;7377675;19;20023;-67
2023/06/23 06:48:19;;;;;;;15.85;14.25;;;21.30;99.90;;;;;;7380177;19;20025;-63
2023/06/23 06:50:46;;;;;;;24.30;21.85;;;21.40;99.90;;;;;;7372400;19;20033;-63
2023/06/23 06:53:14;;;;;;;11.85;10.02;;;21.50;99.90;;;;;;7372897;19;20019;-68
2023/06/23 06:55:41;;;;;;;10.68;8.40;;;21.70;99.90;;;;;;7359543;19;20023;-65
2023/06/23 06:58:09;;;;;;;10.88;9.15;;;21.80;99.90;;;;;;7375426;19;20455;-61
2023/06/23 07:00:36;;;;;;;10.88;8.05;;;21.80;99.90;;;;;;7376582;19;20023;-61
2023/06/23 07:03:04;;;;;;;9.77;8.77;;;21.90;99.90;;;;;;7380019;19;20022;-67
2023/06/23 07:05:30;;;;;;;11.88;7.00;;;22.10;99.90;;;;;;7385141;19;20019;-66
2023/06/23 07:07:56;;;;;;;14.18;10.88;;;22.20;99.90;;;;;;7385540;19;20021;-65
2023/06/23 07:10:22;;;;;;;9.65;8.43;;;22.30;99.90;;;;;;7386241;19;20022;-66
2023/06/23 07:12:52;;;;;;;9.75;6.88;;;22.30;99.90;;;;;;7382383;19;20082;-61
2023/06/23 07:15:21;;;;;;;36.53;33.15;;;22.50;99.90;;;;;;7380822;19;20623;-61
2023/06/23 07:17:47;;;;;;;13.05;11.40;;;22.50;99.90;;;;;;7382166;19;20037;-61
2023/06/23 07:20:15;;;;;;;8.80;7.47;;;22.90;99.90;;;;;;7379105;19;20023;-61
2023/06/23 07:22:41;;;;;;;9.13;6.50;;;23.10;99.90;;;;;;7379971;19;20046;-61
2023/06/23 07:25:08;;;;;;;8.75;6.72;;;23.20;99.90;;;;;;7386488;19;20051;-60
2023/06/23 07:27:34;;;;;;;9.35;8.45;;;23.50;99.90;;;;;;7381571;19;20690;-61
2023/06/23 07:30:00;;;;;;;10.43;5.97;;;23.70;99.90;;;;;;7381587;19;20038;-65
2023/06/23 07:32:27;;;;;;;10.23;5.32;;;23.80;99.90;;;;;;7381011;19;20062;-61
2023/06/23 07:34:53;;;;;;;6.93;5.05;;;23.60;99.90;;;;;;7383506;19;20055;-60
2023/06/23 07:37:19;;;;;;;8.18;6.20;;;23.80;99.90;;;;;;7384112;19;20015;-60
2023/06/23 07:39:46;;;;;;;7.65;5.75;;;24.00;99.90;;;;;;7385252;19;20102;-61
2023/06/23 07:42:12;;;;;;;7.75;6.03;;;24.20;99.90;;;;;;7382473;19;20505;-61
2023/06/23 07:44:38;;;;;;;11.65;10.57;;;24.40;99.90;;;;;;7379818;19;20055;-61
2023/06/23 07:47:05;;;;;;;6.78;6.03;;;24.60;99.90;;;;;;7382733;19;20030;-61
2023/06/23 07:49:31;;;;;;;8.05;5.78;;;24.60;99.90;;;;;;7381794;19;20022;-61
2023/06/23 07:52:00;;;;;;;6.57;5.60;;;24.50;99.90;;;;;;7379439;19;20015;-61
2023/06/23 07:54:28;;;;;;;7.25;5.25;;;24.80;99.90;;;;;;7376088;19;20018;-61
2023/06/23 07:56:58;;;;;;;8.55;7.65;;;24.70;99.90;;;;;;7378609;19;20101;-65
2023/06/23 07:59:27;;;;;;;9.18;6.03;;;25.10;99.90;;;;;;7380893;19;20477;-65
2023/06/23 08:01:54;;;;;;;6.73;5.40;;;25.10;99.90;;;;;;7375493;19;20017;-62
2023/06/23 08:04:22;;;;;;;7.63;5.18;;;25.40;99.90;;;;;;7379542;19;20023;-66
2023/06/23 08:06:49;;;;;;;7.22;5.30;;;25.50;99.90;;;;;;7379725;19;20037;-62
2023/06/23 08:09:15;;;;;;;12.05;6.30;;;25.50;99.90;;;;;;7382430;19;20397;-65
2023/06/23 08:11:42;;;;;;;6.55;5.55;;;25.70;99.90;;;;;;7384027;19;20019;-67
2023/06/23 08:14:08;;;;;;;8.15;5.20;;;25.90;99.90;;;;;;7373299;19;20030;-67
2023/06/23 08:16:34;;;;;;;7.20;5.20;;;25.80;99.90;;;;;;7383228;19;20877;-67
2023/06/23 08:19:00;;;;;;;6.53;5.63;;;25.40;99.90;;;;;;7382474;19;20026;-67
2023/06/23 08:21:30;;;;;;;6.13;4.35;;;25.40;99.90;;;;;;7378729;19;20046;-62
2023/06/23 08:23:57;;;;;;;6.68;5.10;;;25.50;99.90;;;;;;7377199;19;20014;-62
2023/06/23 08:26:23;;;;;;;8.38;4.38;;;25.20;99.90;;;;;;7383196;19;20015;-67
2023/06/23 08:28:50;;;;;;;6.68;4.40;;;25.50;99.90;;;;;;7378372;19;20864;-63
2023/06/23 08:31:16;;;;;;;6.47;4.70;;;25.70;99.90;;;;;;7378625;19;20029;-62
2023/06/23 08:33:43;;;;;;;7.38;5.03;;;26.00;99.90;;;;;;7378276;19;20018;-67
2023/06/23 08:36:09;;;;;;;6.95;4.20;;;26.30;99.90;;;;;;7378407;19;20015;-67
2023/06/23 08:38:35;;;;;;;7.20;4.13;;;26.30;99.90;;;;;;7376980;19;20110;-63
2023/06/23 08:41:03;;;;;;;5.65;3.60;;;26.30;99.90;;;;;;7378728;19;20057;-62
2023/06/23 08:43:34;;;;;;;4.22;3.42;;;26.70;99.90;;;;;;7375305;19;20101;-63
2023/06/23 08:46:02;;;;;;;7.25;3.47;;;26.90;99.90;;;;;;7373789;19;20563;-67
2023/06/23 08:48:30;;;;;;;4.40;3.20;;;26.90;99.90;;;;;;7377786;19;20022;-67
2023/06/23 08:50:59;;;;;;;5.28;3.15;;;26.90;97.80;;;;;;7375569;19;20025;-67
2023/06/23 08:53:26;;;;;;;5.63;3.60;;;27.10;97.40;;;;;;7369986;19;20819;-67
2023/06/23 08:55:54;;;;;;;7.38;6.65;;;27.30;95.90;;;;;;7378159;19;20025;-69
2023/06/23 08:58:22;;;;;;;6.47;3.60;;;27.30;93.00;;;;;;7373163;19;20066;-67
2023/06/23 09:00:53;;;;;;;4.93;2.88;;;27.30;90.50;;;;;;7376033;19;20027;-67
2023/06/23 09:03:22;;;;;;;5.72;3.47;;;27.60;89.30;;;;;;7372591;19;20006;-67
2023/06/23 09:05:51;;;;;;;6.75;3.50;;;27.70;83.10;;;;;;7379887;19;20880;-67
2023/06/23 09:08:18;;;;;;;7.40;6.68;;;27.90;78.80;;;;;;7378150;19;20104;-67
2023/06/23 09:10:45;;;;;;;5.05;2.95;;;28.10;80.80;;;;;;7378102;19;20067;-68
2023/06/23 09:13:20;;;;;;;7.15;5.18;;;28.30;77.20;;;;;;7377516;19;20018;-68
2023/06/23 09:15:51;;;;;;;5.20;3.05;;;28.00;70.50;;;;;;7380499;19;20041;-68
2023/06/23 09:18:20;;;;;;;7.93;6.10;;;28.40;73.10;;;;;;7378627;19;20034;-71
2023/06/23 09:20:50;;;;;;;15.80;14.40;;;28.30;69.80;;;;;;7377501;19;20051;-67
2023/06/23 09:23:21;;;;;;;6.82;5.82;;;28.40;69.10;;;;;;7378757;19;20025;-67
2023/06/23 09:25:50;;;;;;;22.35;20.42;;;28.30;69.90;;;;;;7373995;19;20014;-69
2023/06/23 09:28:35;;;;;;;7.93;4.03;;;28.70;72.80;;;;;;7377583;19;20011;-67
2023/06/23 09:31:15;;;;;;;10.13;9.10;;;28.50;69.10;;;;;;7376188;19;20385;-68
2023/06/23 09:34:00;;;;;;;5.05;4.38;;;28.80;71.00;;;;;;7370561;19;20355;-68
2023/06/23 09:36:33;;;;;;;5.25;3.85;;;28.90;68.90;;;;;;7376833;19;20031;-68
2023/06/23 09:39:01;;;;;;;7.13;6.32;;;29.20;71.10;;;;;;7372361;19;20672;-67
2023/06/23 09:41:32;;;;;;;6.20;4.18;;;29.30;71.00;;;;;;7370032;19;20028;-67
2023/06/23 09:43:59;;;;;;;5.15;3.60;;;29.50;67.20;;;;;;7372010;19;20483;-67
2023/06/23 09:46:32;;;;;;;7.07;5.90;;;29.00;66.60;;;;;;7379106;19;20029;-67
2023/06/23 09:49:00;;;;;;;6.25;4.65;;;29.10;67.60;;;;;;7375403;19;20110;-68
2023/06/23 09:51:26;;;;;;;6.78;6.05;;;28.80;65.70;;;;;;7377594;19;20030;-67
2023/06/23 09:53:52;;;;;;;5.95;4.13;;;29.10;67.90;;;;;;7374302;19;20018;-66
2023/06/23 09:56:22;;;;;;;5.93;3.45;;;29.50;68.00;;;;;;7378371;19;20018;-66
2023/06/23 09:58:49;;;;;;;5.03;3.53;;;29.80;67.10;;;;;;7371448;19;20580;-66
2023/06/23 10:01:20;;;;;;;8.60;3.55;;;29.40;65.30;;;;;;7375224;19;20026;-66
2023/06/23 10:03:52;;;;;;;7.32;4.13;;;29.20;65.90;;;;;;7377190;19;20766;-66
2023/06/23 10:06:28;;;;;;;6.53;4.53;;;29.20;65.90;;;;;;7376429;19;20106;-67
2023/06/23 10:08:57;;;;;;;6.43;3.80;;;29.00;65.90;;;;;;7376314;19;20346;-65
2023/06/23 10:11:34;;;;;;;15.80;14.35;;;28.20;66.50;;;;;;7380286;19;20481;-65
2023/06/23 10:14:05;;;;;;;20.55;18.95;;;28.70;67.00;;;;;;7374401;19;20006;-66
2023/06/23 10:16:34;;;;;;;4.88;3.50;;;29.20;64.30;;;;;;7377652;19;20552;-67
2023/06/23 10:19:00;;;;;;;6.60;2.75;;;29.10;63.90;;;;;;7376846;19;20018;-66
2023/06/23 10:21:30;;;;;;;5.18;3.15;;;29.40;62.60;;;;;;7373581;19;20044;-67
2023/06/23 10:24:03;;;;;;;3.45;2.70;;;29.70;61.80;;;;;;7375723;19;20022;-67
2023/06/23 10:26:31;;;;;;;4.70;2.92;;;29.90;59.50;;;;;;7378632;19;20035;-67
2023/06/23 10:28:59;;;;;;;5.88;3.63;;;29.80;60.00;;;;;;7375216;19;20018;-67
2023/06/23 10:31:30;;;;;;;7.63;5.05;;;30.10;61.10;;;;;;7377286;19;20019;-67
2023/06/23 10:34:01;;;;;;;5.78;3.20;;;30.10;59.50;;;;;;7370648;19;20391;-67
2023/06/23 10:36:30;;;;;;;4.28;3.25;;;29.70;59.40;;;;;;7371966;19;20610;-67
2023/06/23 10:39:00;;;;;;;4.70;3.47;;;30.00;59.00;;;;;;7375152;19;20645;-67
2023/06/23 10:41:27;;;;;;;3.95;2.50;;;29.90;59.10;;;;;;7373187;19;20281;-66
2023/06/23 10:43:56;;;;;;;6.57;4.53;;;29.80;58.40;;;;;;7369032;19;20082;-68
2023/06/23 10:46:23;;;;;;;4.68;2.95;;;30.10;58.10;;;;;;7373585;19;20026;-66
2023/06/23 10:48:52;;;;;;;5.80;3.47;;;30.30;59.50;;;;;;7375983;19;20108;-64
2023/06/23 10:51:20;;;;;;;7.57;5.35;;;29.60;58.70;;;;;;7375793;19;20406;-64
2023/06/23 10:54:01;;;;;;;12.30;11.15;;;29.70;58.90;;;;;;7378683;19;20019;-66
2023/06/23 10:56:34;;;;;;;4.55;3.33;;;30.00;59.70;;;;;;7375488;19;20022;-65
2023/06/23 10:59:24;;;;;;;12.20;11.00;;;30.10;58.90;;;;;;7377951;19;20092;-65
2023/06/23 11:02:07;;;;;;;7.18;4.60;;;29.70;60.10;;;;;;7372875;19;20365;-64
2023/06/23 11:04:38;;;;;;;15.98;14.38;;;29.40;59.30;;;;;;7373466;19;20033;-64
2023/06/23 11:07:09;;;;;;;5.88;4.43;;;29.30;61.20;;;;;;7375601;19;20875;-64
2023/06/23 11:09:38;;;;;;;8.00;6.40;;;29.70;61.10;;;;;;7373483;19;20026;-64
2023/06/23 11:12:26;;;;;;;4.65;4.18;;;29.70;60.90;;;;;;7376331;19;20030;-64
2023/06/23 11:14:53;;;;;;;4.55;3.20;;;29.60;58.20;;;;;;7369695;19;20026;-65
2023/06/23 11:17:22;;;;;;;5.93;4.43;;;29.80;59.60;;;;;;7375896;19;20576;-65
2023/06/23 11:19:51;;;;;;;5.70;3.42;;;30.10;58.80;;;;;;7370407;19;20089;-65
2023/06/23 11:22:28;;;;;;;4.70;4.00;;;29.80;59.20;;;;;;7374366;19;20078;-64
2023/06/23 11:24:54;;;;;;;7.78;3.58;;;30.50;60.00;;;;;;7368785;19;20110;-65
2023/06/23 11:27:21;;;;;;;4.55;3.47;;;30.70;59.80;;;;;;7373192;19;20041;-62
2023/06/23 11:30:16;;;;;;;3.97;2.90;;;30.40;58.30;;;;;;7371532;19;20829;-62
2023/06/23 11:32:43;;;;;;;4.47;3.40;;;30.20;56.50;;;;;;7371298;19;20022;-63
2023/06/23 11:35:10;;;;;;;4.30;3.15;;;30.20;58.20;;;;;;7372811;19;20018;-64
2023/06/23 11:37:38;;;;;;;5.50;2.92;;;30.60;57.60;;;;;;7375981;19;20026;-64
2023/06/23 11:40:08;;;;;;;4.85;2.65;;;30.80;57.20;;;;;;7374907;19;20023;-64
2023/06/23 11:42:36;;;;;;;4.07;2.63;;;30.80;56.40;;;;;;7373813;19;20141;-64
2023/06/23 11:45:03;;;;;;;4.57;2.05;;;30.50;54.70;;;;;;7375653;19;20022;-64
2023/06/23 11:47:30;;;;;;;5.63;2.47;;;30.40;56.40;;;;;;7376360;19;20036;-64
2023/06/23 11:49:56;;;;;;;3.88;2.47;;;30.20;56.10;;;;;;7380709;19;20023;-73
2023/06/23 11:52:23;;;;;;;12.65;11.52;;;30.60;55.50;;;;;;7383287;19;20015;-65
2023/06/23 11:54:51;;;;;;;3.72;3.30;;;30.90;54.50;;;;;;7377461;19;20035;-81
2023/06/23 11:57:21;;;;;;;3.38;2.17;;;30.40;51.90;;;;;;7377888;19;20019;-78
2023/06/23 11:59:48;;;;;;;4.55;4.00;;;30.80;53.20;;;;;;7377926;19;20022;-79
2023/06/23 12:02:15;;;;;;;4.70;3.90;;;30.80;53.10;;;;;;7375646;19;20054;-79
2023/06/23 12:04:42;;;;;;;4.55;4.07;;;31.00;53.50;;;;;;7378684;19;20029;-78
2023/06/23 12:07:19;;;;;;;5.05;2.80;;;30.90;52.60;;;;;;7374766;19;20533;-78
2023/06/23 12:09:46;;;;;;;3.60;2.38;;;31.30;52.80;;;;;;7382255;19;20022;-79
2023/06/23 12:12:14;;;;;;;9.52;8.57;;;31.20;51.30;;;;;;7372843;19;20025;-80
2023/06/23 12:14:42;;;;;;;10.90;9.93;;;30.80;50.60;;;;;;7375154;19;20040;-80
2023/06/23 12:17:11;;;;;;;5.20;4.43;;;31.10;49.90;;;;;;7373167;19;20015;-80
2023/06/23 12:19:39;;;;;;;6.63;3.10;;;31.00;49.80;;;;;;7377918;19;20017;-80
2023/06/23 12:22:16;;;;;;;4.43;3.03;;;31.20;49.00;;;;;;7379038;19;20018;-80
2023/06/23 12:24:46;;;;;;;6.13;2.80;;;31.20;49.10;;;;;;7380378;19;20058;-80
2023/06/23 12:27:13;;;;;;;4.93;4.07;;;31.40;48.50;;;;;;7377840;19;20362;-80
2023/06/23 12:29:39;;;;;;;9.90;8.98;;;31.50;47.80;;;;;;7381006;19;20687;-80
2023/06/23 12:32:05;;;;;;;5.15;4.65;;;31.80;47.50;;;;;;7379134;19;20480;-80
2023/06/23 12:34:34;;;;;;;5.65;3.95;;;31.80;47.80;;;;;;7380562;19;20035;-80
2023/06/23 12:37:10;;;;;;;7.88;5.82;;;31.80;47.20;;;;;;7379178;19;20018;-80
2023/06/23 12:39:37;;;;;;;7.40;3.58;;;32.00;46.70;;;;;;7379930;19;20032;-79
2023/06/23 12:42:06;;;;;;;5.05;2.58;;;32.20;46.90;;;;;;7377714;19;20128;-79
2023/06/23 12:44:33;;;;;;;4.30;2.72;;;32.00;46.40;;;;;;7378289;19;20010;-79
2023/06/23 12:47:04;;;;;;;4.65;4.20;;;31.80;45.60;;;;;;7378213;19;20022;-80
2023/06/23 12:49:32;;;;;;;5.72;2.67;;;31.60;46.20;;;;;;7381572;19;20011;-79